Latest Weather Observations for Willis Island

IDQ60801

Issued at 9:02 am EST Friday 27 February 2015 (issued every 30 minutes, with the page automatically refreshed every 10 minutes)

About weather observations | Map of weather stations | Latest weather observations for QLD | Other Formats
Station Details ID: 200283 Name: WILLIS ISLAND Lat: -16.29 Lon: 149.97 Height: 9.29 m
Data from the previous 72 hours. | See also: Recent months at Willis Island
Date/Time
EST
Temp
°C
App
Temp
°C
Dew
Point
Rel
Hum
%
Delta-T
°C
Wind Press
QNH
hPa
Press
MSL
hPa
Rain
since 9 am
mm
Dir
 
Spd
km/h
Gust
km/h
Spd
kts
Gust
kts
27/09:00am 29.5 32.2 22.9 67 4.5 ESE 13 15 7 8 1007.3 - 0.2
27/08:30am 29.5 32.5 22.6 66 4.7 ESE 11 15 6 8 1007.2 - 0.2
27/08:00am 29.1 32.5 23.3 71 4.0 SE 11 15 6 8 1006.9 - 0.2
27/07:30am 28.7 31.8 22.8 70 4.0 SE 11 15 6 8 1006.8 - 0.2
27/07:00am 27.3 30.4 22.9 77 3.0 SE 11 15 6 8 1006.5 - 0.2
27/06:30am 26.9 29.6 22.8 78 2.8 ESE 13 17 7 9 1006.2 - 0.2
27/06:00am 26.9 29.6 22.8 78 2.8 ESE 13 17 7 9 1006.0 1006.0 0.2
27/05:30am 26.9 28.7 22.5 77 3.0 SE 17 20 9 11 1005.9 - 0.2
27/05:00am 27.1 28.7 22.2 74 3.3 SE 17 20 9 11 1005.6 - 0.2
27/04:30am 27.0 28.9 22.7 77 2.9 SE 17 19 9 10 1005.6 - 0.2
27/04:00am 27.1 28.5 22.5 76 3.1 SE 19 22 10 12 1005.4 - 0.2
27/03:30am 27.1 28.5 22.8 77 2.9 SE 20 28 11 15 1005.3 - 0.2
27/03:00am 27.2 28.6 22.8 77 3.0 SE 20 24 11 13 1005.3 1005.3 0.2
27/02:30am 27.3 27.8 22.6 75 3.2 SSE 24 30 13 16 1005.4 - 0.2
27/02:00am 27.3 28.0 23.0 77 2.9 SSE 24 28 13 15 1005.9 - 0.2
27/01:30am 27.4 28.2 22.4 74 3.4 SE 22 26 12 14 1006.3 - 0.2
27/01:00am 27.4 27.9 22.7 75 3.2 SSE 24 28 13 15 1006.6 - 0.2
27/12:30am 27.5 27.9 23.1 77 3.0 SSE 26 32 14 17 1006.9 - 0.2
27/12:00am 27.5 28.2 23.0 76 3.1 SSE 24 28 13 15 1007.3 1007.3 0.2
 
Date/Time
EST
Temp
°C
App
Temp
°C
Dew
Point
Rel
Hum
%
Delta-T
°C
Wind Press
QNH
hPa
Press
MSL
hPa
Rain
since 9 am
mm
Dir
 
Spd
km/h
Gust
km/h
Spd
kts
Gust
kts
26/11:30pm 27.7 27.9 22.7 74 3.4 SSE 26 30 14 16 1007.3 - 0.2
26/11:00pm 27.6 27.7 23.2 77 3.0 SSE 28 32 15 17 1007.4 - 0.2
26/10:30pm 27.7 27.8 23.2 76 3.1 SSE 28 32 15 17 1007.4 - 0.2
26/10:00pm 27.8 28.1 23.6 78 2.9 SSE 28 32 15 17 1007.3 - 0.2
26/09:30pm 27.9 28.3 23.7 78 2.9 SSE 28 35 15 19 1007.3 - 0.2
26/09:00pm 27.9 28.3 23.8 78 2.8 SSE 28 32 15 17 1007.1 1007.1 0.2
26/08:30pm 28.0 29.5 24.3 80 2.6 SSE 24 28 13 15 1006.8 - 0.2
26/08:00pm 28.1 29.3 23.8 77 3.0 SSE 24 28 13 15 1006.4 - 0.2
26/07:30pm 28.2 29.6 23.6 76 3.2 SSE 22 26 12 14 1005.9 - 0.2
26/07:00pm 28.2 29.0 23.1 74 3.5 S 24 28 13 15 1005.5 - 0.2
26/06:30pm 28.1 29.0 23.4 75 3.2 S 24 30 13 16 1005.3 - 0.2
26/06:00pm 28.5 29.2 23.6 75 3.4 SSE 26 28 14 15 1005.0 1005.0 0.2
26/05:30pm 28.8 29.3 23.3 72 3.8 S 26 30 14 16 1004.7 - 0.2
26/05:00pm 29.1 29.6 23.3 71 4.0 S 26 30 14 16 1004.5 - 0.2
26/04:30pm 29.4 31.9 24.5 75 3.4 S 19 22 10 12 1004.4 - 0.2
26/04:00pm 29.2 30.7 23.1 69 4.2 S 20 22 11 12 1004.3 - 0.2
26/03:30pm 29.7 32.6 24.4 73 3.7 S 17 19 9 10 1004.2 - 0.2
26/03:00pm 29.5 31.5 24.0 72 3.8 S 20 22 11 12 1004.3 1004.3 0.2
26/02:30pm 29.3 31.3 24.6 76 3.3 S 22 26 12 14 1004.5 - 0.2
26/02:00pm 29.3 29.8 24.0 73 3.7 S 28 32 15 17 1004.7 - 0.2
26/01:30pm 30.4 32.5 24.1 69 4.4 SSE 20 22 11 12 1005.1 - 0.2
26/01:00pm 30.5 33.3 24.3 69 4.3 SSE 17 20 9 11 1005.4 - 0.2
26/12:30pm 30.1 33.6 24.8 73 3.7 SSE 15 17 8 9 1005.8 - 0.2
26/12:00pm 29.8 34.9 25.6 78 3.0 ESE 9 13 5 7 1006.3 1006.3 0.2
26/11:30am 29.8 34.0 25.4 77 3.1 SE 13 15 7 8 1006.7 - 0.2
26/11:00am 30.0 35.1 26.2 80 2.7 ESE 11 15 6 8 1006.9 - 0.2
26/10:30am 29.2 31.7 25.4 80 2.7 E 22 24 12 13 1007.1 - 0.2
26/10:00am 27.6 30.4 24.3 82 2.3 ESE 17 22 9 12 1007.4 - 0.2
26/09:30am 27.3 29.4 24.7 86 1.8 S 22 28 12 15 1007.4 - 0.2
26/09:00am 28.1 31.3 25.0 83 2.2 S 17 20 9 11 1007.5 1007.5 2.6
26/08:30am 28.6 31.3 24.7 79 2.7 S 19 26 10 14 1007.3 - 1.6
26/08:00am 27.3 31.2 24.9 87 1.7 S 13 19 7 10 1007.2 - 1.6
26/07:30am 28.2 30.6 24.3 79 2.7 S 19 22 10 12 1006.9 - 1.0
26/07:00am 27.7 29.9 23.9 80 2.6 S 19 22 10 12 1006.6 - 1.0
26/06:30am 27.7 28.9 23.8 79 2.7 SSW 24 26 13 14 1006.4 - 1.0
26/06:00am 27.7 29.1 23.6 78 2.8 S 22 26 12 14 1005.7 1005.7 1.0
26/05:30am 27.6 29.3 23.4 78 2.9 S 20 24 11 13 1005.7 - 1.0
26/05:00am 27.6 29.3 23.1 76 3.1 S 19 24 10 13 1005.7 - 1.0
26/04:30am 27.5 29.9 23.7 80 2.6 S 17 20 9 11 1005.6 - 1.0
26/04:00am 27.6 29.9 23.4 78 2.9 S 17 20 9 11 1005.6 - 1.0
26/03:30am 27.4 29.0 23.2 78 2.9 S 20 26 11 14 1005.4 - 1.0
26/03:00am 27.3 28.7 22.9 77 3.0 S 20 24 11 13 1005.5 1005.5 1.0
26/02:30am 27.1 29.2 23.1 79 2.7 SSE 17 19 9 10 1005.5 - 1.0
26/02:00am 27.2 28.9 23.4 80 2.6 S 20 26 11 14 1005.7 - 1.0
26/01:30am 27.6 29.2 23.2 77 3.0 S 20 24 11 13 1005.9 - 1.0
26/01:00am 27.6 29.3 23.4 78 2.9 S 20 26 11 14 1006.4 - 1.0
26/12:30am 27.3 28.4 23.0 77 2.9 SSE 22 26 12 14 1006.6 - 1.0
26/12:00am 27.3 27.6 22.9 77 3.0 S 26 32 14 17 1006.7 1006.7 1.0
 
Date/Time
EST
Temp
°C
App
Temp
°C
Dew
Point
Rel
Hum
%
Delta-T
°C
Wind Press
QNH
hPa
Press
MSL
hPa
Rain
since 9 am
mm
Dir
 
Spd
km/h
Gust
km/h
Spd
kts
Gust
kts
25/11:30pm 27.4 28.2 23.8 81 2.5 S 26 32 14 17 1007.1 - 1.0
25/11:00pm 28.0 29.2 23.2 75 3.3 S 22 26 12 14 1007.3 - 0.0
25/10:30pm 28.0 28.4 23.2 75 3.3 S 26 30 14 16 1007.5 - 0.0
25/10:00pm 27.9 28.0 22.6 73 3.6 S 26 32 14 17 1007.4 - 0.0
25/09:30pm 28.0 26.8 22.2 70 3.9 S 32 37 17 20 1007.3 - 0.0
25/09:00pm 28.1 27.2 22.2 70 4.0 S 30 35 16 19 1007.2 1007.2 0.0
25/08:30pm 28.4 27.2 22.7 71 3.9 S 33 39 18 21 1006.7 - 0.0
25/08:00pm 28.4 27.5 22.8 71 3.8 S 32 39 17 21 1006.6 - 0.0
25/07:30pm 28.5 28.6 23.3 73 3.6 S 28 35 15 19 1006.4 - 0.0
25/07:00pm 28.4 28.9 23.3 74 3.5 S 26 32 14 17 1006.2 - 0.0
25/06:30pm 28.4 28.4 23.1 73 3.6 S 28 32 15 17 1006.0 - 0.0
25/06:00pm 28.6 28.8 23.5 74 3.5 S 28 32 15 17 1005.7 1005.7 0.0
25/05:30pm 28.9 29.5 23.4 72 3.8 S 26 30 14 16 1005.4 - 0.0
25/05:00pm 29.3 29.4 23.2 69 4.2 S 28 32 15 17 1005.3 - 0.0
25/04:30pm 29.2 29.6 23.2 70 4.1 S 26 30 14 16 1005.1 - 0.0
25/04:00pm 29.6 29.6 23.7 70 4.1 S 30 32 16 17 1005.1 - 0.0
25/03:30pm 29.4 29.4 23.1 69 4.3 S 28 33 15 18 1005.2 - 0.0
25/03:00pm 29.8 30.0 22.8 66 4.8 S 26 32 14 17 1005.5 1005.5 0.0
25/02:30pm 30.2 32.0 23.5 67 4.6 S 20 26 11 14 1005.9 - 0.0
25/02:00pm 29.9 31.7 23.5 68 4.4 S 20 26 11 14 1006.3 - 0.0
25/01:30pm 30.1 31.2 23.6 68 4.5 S 24 28 13 15 1006.4 - 0.0
25/01:00pm 30.3 31.9 23.2 65 4.9 S 20 24 11 13 1006.9 - 0.0
25/12:30pm 30.4 31.8 23.5 66 4.8 S 22 26 12 14 1007.1 - 0.0
25/12:00pm 30.3 31.8 23.7 68 4.6 S 22 26 12 14 1007.3 1007.3 0.0
25/11:30am 30.5 32.0 23.7 67 4.7 S 22 26 12 14 1007.3 - 0.0
25/11:00am 30.4 32.6 23.9 68 4.5 S 19 24 10 13 1007.6 - 0.0
25/10:30am 29.8 32.0 24.0 71 4.0 SSE 19 20 10 11 1007.5 - 0.0
25/10:00am 29.6 31.7 23.7 70 4.1 S 19 20 10 11 1007.9 - 0.0
25/09:30am 29.6 31.7 23.8 71 4.0 SSE 19 24 10 13 1008.2 - 0.0
25/09:00am 29.5 30.9 23.6 70 4.1 S 22 26 12 14 1008.3 1008.3 0.2
25/08:30am 29.3 31.2 24.4 75 3.4 SSE 22 24 12 13 1008.3 - 0.2
25/08:00am 29.2 32.5 24.5 76 3.3 SSE 15 19 8 10 1008.1 - 0.2
25/07:30am 28.4 31.0 23.9 76 3.1 SSE 17 19 9 10 1008.0 - 0.2
25/07:00am 28.2 30.9 23.5 75 3.2 S 15 19 8 10 1008.0 - 0.2
25/06:30am 27.8 30.5 24.2 81 2.5 SSE 17 19 9 10 1007.7 - 0.2
25/06:00am 27.5 30.1 24.0 81 2.4 SSE 17 20 9 11 1007.6 1007.6 0.2
25/05:30am 27.6 30.8 24.4 83 2.2 SSE 15 19 8 10 1007.4 - 0.2
25/05:00am 27.5 30.9 24.0 81 2.4 SSE 13 15 7 8 1007.3 - 0.2
25/04:30am 27.4 30.5 24.2 83 2.2 SSE 15 20 8 11 1006.9 - 0.2
25/04:00am 27.6 31.0 24.6 84 2.1 ESE 15 17 8 9 1006.6 - 0.2
25/03:30am 27.5 30.7 24.3 83 2.2 SE 15 19 8 10 1006.4 - 0.2
25/03:00am 27.5 30.1 24.6 84 2.0 SE 19 20 10 11 1006.2 1006.2 0.2
25/02:30am 27.6 30.4 24.9 85 1.9 SE 19 20 10 11 1006.2 - 0.2
25/02:00am 27.7 30.4 25.0 85 1.9 SE 20 24 11 13 1006.4 - 0.2
25/01:30am 27.6 30.8 24.9 85 1.9 SE 17 20 9 11 1006.9 - 0.2
25/01:00am 27.6 30.8 24.3 82 2.3 ESE 15 17 8 9 1007.0 - 0.2
25/12:30am 27.7 31.0 25.1 86 1.8 SE 17 19 9 10 1007.3 - 0.2
25/12:00am 27.8 30.7 24.5 82 2.3 SSE 17 19 9 10 1007.6 1007.6 0.2
 
Date/Time
EST
Temp
°C
App
Temp
°C
Dew
Point
Rel
Hum
%
Delta-T
°C
Wind Press
QNH
hPa
Press
MSL
hPa
Rain
since 9 am
mm
Dir
 
Spd
km/h
Gust
km/h
Spd
kts
Gust
kts
24/11:30pm 28.0 30.5 24.4 81 2.5 SSE 19 20 10 11 1008.1 - 0.2
24/11:00pm 27.4 32.0 24.2 83 2.2 ESE 7 9 4 5 1008.0 - 0.2
24/10:30pm 27.0 30.8 23.5 81 2.4 SSE 9 11 5 6 1008.2 - 0.2
24/10:00pm 26.1 27.2 22.4 80 2.5 ESE 20 28 11 15 1008.3 - 0.2
24/09:30pm 28.8 33.0 26.0 85 2.0 SSW 15 17 8 9 1008.1 - 0.0
24/09:00pm 28.9 32.6 25.8 83 2.2 SSW 17 17 9 9 1008.1 1008.1 0.0
24/08:30pm 28.7 32.4 25.7 84 2.1 SSW 17 20 9 11 1008.0 - 0.0
24/08:00pm 28.9 31.9 25.5 82 2.4 SSW 20 22 11 12 1007.6 - 0.0
24/07:30pm 28.8 32.3 26.0 85 2.0 SSW 19 20 10 11 1007.3 - 0.0
24/07:00pm 28.8 32.2 25.8 84 2.1 SW 19 20 10 11 1007.1 - 0.0
24/06:30pm 28.4 32.3 25.4 84 2.1 SW 15 17 8 9 1006.8 - 0.0
24/06:00pm 28.1 31.2 25.7 87 1.7 W 20 30 11 16 1006.7 1006.7 0.0
24/05:30pm 29.5 33.4 26.0 81 2.5 WSW 17 20 9 11 1006.4 - 0.0
24/05:00pm 29.8 33.1 25.7 78 2.9 W 19 22 10 12 1006.2 - 0.0
24/04:30pm 30.1 33.0 25.9 78 3.0 W 22 24 12 13 1006.2 - 0.0
24/04:00pm 30.4 33.3 25.9 77 3.2 W 22 26 12 14 1006.1 - 0.0
24/03:30pm 30.9 34.4 26.3 76 3.3 W 20 24 11 13 1006.4 - 0.0
24/03:00pm 30.9 34.2 26.0 75 3.5 W 20 24 11 13 1006.5 1006.5 0.0
24/02:30pm 30.8 34.3 26.0 75 3.4 W 19 20 10 11 1006.5 - 0.0
24/02:00pm 31.0 34.3 26.0 74 3.6 W 20 22 11 12 1006.6 - 0.0
24/01:30pm 31.3 35.0 26.3 75 3.6 W 19 20 10 11 1006.8 - 0.0
24/01:00pm 31.1 34.7 26.2 75 3.5 W 19 20 10 11 1007.1 - 0.0
24/12:30pm 31.3 34.9 26.1 74 3.7 WNW 19 24 10 13 1007.6 - 0.0
24/12:00pm 30.8 33.9 25.4 73 3.8 WNW 19 20 10 11 1008.0 1008.0 0.0
24/11:30am 31.0 34.3 25.7 73 3.8 WNW 19 22 10 12 1008.3 - 0.0
24/11:00am 31.0 35.1 25.8 74 3.7 NW 15 20 8 11 1008.4 - 0.0
24/10:30am 30.8 35.0 25.9 75 3.5 NW 15 19 8 10 1008.6 - 0.0
24/10:00am 30.7 34.5 25.9 75 3.4 NW 17 19 9 10 1009.1 - 0.0
24/09:30am 30.2 34.3 25.7 77 3.2 NW 15 20 8 11 1009.0 - 0.0

Other Formats:

Comma delimited format used in spreadsheet applications
http://www.bom.gov.au/fwo/IDQ60801/IDQ60801.94299.axf

JavaScript Object Notation format (JSON) in row-major order
http://www.bom.gov.au/fwo/IDQ60801/IDQ60801.94299.json